createdAt,value
2018-04-24T00:01:21.633Z,9.87
2018-04-24T00:03:48.311Z,9.03
2018-04-24T00:06:15.131Z,9.40
2018-04-24T00:08:42.057Z,12.90
2018-04-24T00:11:08.773Z,10.00
2018-04-24T00:13:35.491Z,8.00
2018-04-24T00:16:02.363Z,8.50
2018-04-24T00:18:29.066Z,10.30
2018-04-24T00:20:55.783Z,10.63
2018-04-24T00:23:22.487Z,10.37
2018-04-24T00:25:49.176Z,9.37
2018-04-24T00:28:15.877Z,8.90
2018-04-24T00:30:42.683Z,9.90
2018-04-24T00:33:09.373Z,9.37
2018-04-24T00:35:36.102Z,10.80
2018-04-24T00:38:02.799Z,10.13
2018-04-24T00:40:29.512Z,8.27
2018-04-24T00:42:56.208Z,10.67
2018-04-24T00:45:22.909Z,12.57
2018-04-24T00:47:49.619Z,15.70
2018-04-24T00:50:16.359Z,8.37
2018-04-24T00:52:43.067Z,8.60
2018-04-24T00:55:09.760Z,9.53
2018-04-24T00:57:36.453Z,10.83
2018-04-24T01:00:03.175Z,10.17
2018-04-24T01:02:29.878Z,11.10
2018-04-24T01:04:56.553Z,10.10
2018-04-24T01:07:23.231Z,13.43
2018-04-24T01:09:49.952Z,8.40
2018-04-24T01:12:16.642Z,11.30
2018-04-24T01:14:43.312Z,9.83
2018-04-24T01:17:10.051Z,8.30
2018-04-24T01:19:36.748Z,9.17
2018-04-24T01:22:03.450Z,11.63
2018-04-24T01:24:30.128Z,9.07
2018-04-24T01:26:56.840Z,10.63
2018-04-24T01:29:23.512Z,10.57
2018-04-24T01:31:50.203Z,10.93
2018-04-24T01:34:16.880Z,12.00
2018-04-24T01:36:43.592Z,13.67
2018-04-24T01:39:10.282Z,9.93
2018-04-24T01:41:36.964Z,9.10
2018-04-24T01:44:03.653Z,11.83
2018-04-24T01:46:30.355Z,10.80
2018-04-24T01:48:57.019Z,9.60
2018-04-24T01:51:23.730Z,14.20
2018-04-24T01:53:50.404Z,10.97
2018-04-24T01:56:17.101Z,15.27
2018-04-24T01:58:43.817Z,12.23
2018-04-24T02:01:10.551Z,11.80
2018-04-24T02:03:37.249Z,11.20
2018-04-24T02:06:03.985Z,10.03
2018-04-24T02:08:30.671Z,10.53
2018-04-24T02:10:57.424Z,11.00
2018-04-24T02:13:24.122Z,10.57
2018-04-24T02:15:50.841Z,10.53
2018-04-24T02:18:17.509Z,9.20
2018-04-24T02:20:44.215Z,13.40
2018-04-24T02:23:10.928Z,14.63
2018-04-24T02:25:37.624Z,12.80
2018-04-24T02:28:04.299Z,14.37
2018-04-24T02:30:31.002Z,12.37
2018-04-24T02:32:57.707Z,11.70
2018-04-24T02:35:24.394Z,12.00
2018-04-24T02:37:51.120Z,14.57
2018-04-24T02:40:17.868Z,12.53
2018-04-24T02:42:44.571Z,16.17
2018-04-24T02:45:11.273Z,11.23
2018-04-24T02:47:37.983Z,12.40
2018-04-24T02:50:04.662Z,13.40
2018-04-24T02:52:31.370Z,21.53
2018-04-24T02:54:58.074Z,14.80
2018-04-24T02:57:24.767Z,11.17
2018-04-24T02:59:51.464Z,10.43
2018-04-24T03:02:18.188Z,17.83
2018-04-24T03:04:44.894Z,16.97
2018-04-24T03:07:11.590Z,12.70
2018-04-24T03:09:38.283Z,11.03
2018-04-24T03:12:04.983Z,12.23
2018-04-24T03:14:31.671Z,11.50
2018-04-24T03:16:58.387Z,12.67
2018-04-24T03:19:25.076Z,14.47
2018-04-24T03:21:51.769Z,13.50
2018-04-24T03:24:18.477Z,17.00
2018-04-24T03:26:45.178Z,11.67
2018-04-24T03:29:11.916Z,16.27
2018-04-24T03:31:38.624Z,13.13
2018-04-24T03:34:05.299Z,15.03
2018-04-24T03:36:31.999Z,14.37
2018-04-24T03:38:58.791Z,14.33
2018-04-24T03:41:25.481Z,14.10
2018-04-24T03:43:52.191Z,12.83
2018-04-24T03:46:18.895Z,12.80
2018-04-24T03:48:45.601Z,14.07
2018-04-24T03:51:12.289Z,15.70
2018-04-24T03:53:38.980Z,13.73
2018-04-24T03:56:05.689Z,15.63
2018-04-24T03:58:32.462Z,11.87
2018-04-24T04:00:59.137Z,18.50
2018-04-24T04:03:25.807Z,12.83
2018-04-24T04:05:52.524Z,12.80
2018-04-24T04:08:19.226Z,17.90
2018-04-24T04:10:45.949Z,11.53
2018-04-24T04:13:12.659Z,11.10
2018-04-24T04:15:39.336Z,13.60
2018-04-24T04:18:11.892Z,14.50
2018-04-24T04:20:44.329Z,14.30
2018-04-24T04:23:16.865Z,17.20
2018-04-24T04:25:43.570Z,16.83
2018-04-24T04:28:10.244Z,16.27
2018-04-24T04:30:36.981Z,17.53
2018-04-24T04:33:03.685Z,20.57
2018-04-24T04:35:30.972Z,15.57
2018-04-24T04:37:57.704Z,18.27
2018-04-24T04:40:24.972Z,19.77
2018-04-24T04:42:51.688Z,19.73
2018-04-24T04:45:18.393Z,18.17
2018-04-24T04:47:45.111Z,20.87
2018-04-24T04:50:11.828Z,19.93
2018-04-24T04:52:38.549Z,18.30
2018-04-24T04:55:05.262Z,22.83
2018-04-24T04:57:31.992Z,23.30
2018-04-24T04:59:58.699Z,25.93
2018-04-24T05:02:25.399Z,23.37
2018-04-24T05:04:52.102Z,20.83
2018-04-24T05:07:18.807Z,21.37
2018-04-24T05:09:45.483Z,24.47
2018-04-24T05:12:12.211Z,18.77
2018-04-24T05:14:38.904Z,17.97
2018-04-24T05:17:05.682Z,20.20
2018-04-24T05:19:32.390Z,18.13
2018-04-24T05:21:59.096Z,17.70
2018-04-24T05:24:25.811Z,16.07
2018-04-24T05:26:52.515Z,16.53
2018-04-24T05:29:19.209Z,16.90
2018-04-24T05:31:45.949Z,20.53
2018-04-24T05:34:12.661Z,15.90
2018-04-24T05:36:39.398Z,18.43
2018-04-24T05:39:06.108Z,15.47
2018-04-24T05:41:32.879Z,17.10
2018-04-24T05:43:59.574Z,16.67
2018-04-24T05:46:26.498Z,15.70
2018-04-24T05:48:53.217Z,20.30
2018-04-24T05:51:19.953Z,17.07
2018-04-24T05:53:46.629Z,15.80
2018-04-24T05:56:13.333Z,20.10
2018-04-24T05:58:40.025Z,16.20
2018-04-24T06:01:06.748Z,15.37
2018-04-24T06:03:33.479Z,19.40
2018-04-24T06:06:00.168Z,17.50
2018-04-24T06:08:26.960Z,18.60
2018-04-24T06:10:53.565Z,18.53
2018-04-24T06:13:20.287Z,19.70
2018-04-24T06:15:46.972Z,17.97
2018-04-24T06:18:13.721Z,20.13
2018-04-24T06:20:40.429Z,16.37
2018-04-24T06:23:07.172Z,16.60
2018-04-24T06:25:33.893Z,18.33
2018-04-24T06:28:00.606Z,19.43
2018-04-24T06:30:27.273Z,16.53
2018-04-24T06:32:54.700Z,17.00
2018-04-24T06:35:21.400Z,17.73
2018-04-24T06:37:48.114Z,16.70
2018-04-24T06:40:14.798Z,25.00
2018-04-24T06:42:41.521Z,17.70
2018-04-24T06:45:08.220Z,17.00
2018-04-24T06:47:34.936Z,17.80
2018-04-24T06:50:01.609Z,15.50
2018-04-24T06:52:28.313Z,16.20
2018-04-24T06:54:55.014Z,14.17
2018-04-24T06:57:21.775Z,14.00
2018-04-24T06:59:48.491Z,13.47
2018-04-24T07:02:15.227Z,14.90
2018-04-24T07:04:41.945Z,12.27
2018-04-24T07:07:08.666Z,16.00
2018-04-24T07:09:35.381Z,12.13
2018-04-24T07:12:02.157Z,12.17
2018-04-24T07:14:28.936Z,13.73
2018-04-24T07:16:55.722Z,12.47
2018-04-24T07:19:22.958Z,15.70
2018-04-24T07:21:49.641Z,15.03
2018-04-24T07:24:16.384Z,12.80
2018-04-24T07:26:43.073Z,11.23
2018-04-24T07:29:10.875Z,12.73
2018-04-24T07:31:37.588Z,13.20
2018-04-24T07:34:05.025Z,12.30
2018-04-24T07:36:31.729Z,12.27
2018-04-24T07:38:58.406Z,13.27
2018-04-24T07:41:25.113Z,13.50
2018-04-24T07:43:51.797Z,12.87
2018-04-24T07:46:18.499Z,17.60
2018-04-24T07:48:45.203Z,11.33
2018-04-24T07:51:11.975Z,13.33
2018-04-24T07:53:38.659Z,13.33
2018-04-24T07:56:05.403Z,13.47
2018-04-24T07:58:32.097Z,12.33
2018-04-24T08:00:58.961Z,12.50
2018-04-24T08:03:25.655Z,12.17
2018-04-24T08:05:52.503Z,11.90
2018-04-24T08:08:19.192Z,10.17
2018-04-24T08:10:45.979Z,12.53
2018-04-24T08:13:12.666Z,11.03
2018-04-24T08:15:40.754Z,13.40
2018-04-24T08:18:07.469Z,10.80
2018-04-24T08:20:34.156Z,11.73
2018-04-24T08:23:00.867Z,11.10
2018-04-24T08:25:27.571Z,9.93
2018-04-24T08:27:54.525Z,10.17
2018-04-24T08:30:21.219Z,10.27
2018-04-24T08:32:47.896Z,9.80
2018-04-24T08:35:14.600Z,9.07
2018-04-24T08:37:41.473Z,8.90
2018-04-24T08:40:08.162Z,7.90
2018-04-24T08:42:34.883Z,8.63
2018-04-24T08:45:01.610Z,9.00
2018-04-24T08:47:28.295Z,7.80
2018-04-24T08:49:55.016Z,9.47
2018-04-24T08:52:21.741Z,9.20
2018-04-24T08:54:48.461Z,10.07
2018-04-24T08:57:15.163Z,9.30
2018-04-24T08:59:42.519Z,9.03
2018-04-24T09:02:09.262Z,8.53
2018-04-24T09:04:36.582Z,7.87
2018-04-24T09:07:03.260Z,7.93
2018-04-24T09:09:29.970Z,7.43
2018-04-24T09:11:56.674Z,9.67
2018-04-24T09:14:23.373Z,9.37
2018-04-24T09:16:50.129Z,13.47
2018-04-24T09:19:16.822Z,8.13
2018-04-24T09:21:43.531Z,7.83
2018-04-24T09:24:10.217Z,6.20
2018-04-24T09:26:36.920Z,7.30
2018-04-24T09:29:03.589Z,6.50
2018-04-24T09:31:35.935Z,6.80
2018-04-24T09:34:03.008Z,5.53
2018-04-24T09:36:29.700Z,6.60
2018-04-24T09:38:56.404Z,6.57
2018-04-24T09:41:23.159Z,7.60
2018-04-24T09:43:49.932Z,6.77
2018-04-24T09:46:16.639Z,6.07
2018-04-24T09:48:43.300Z,5.50
2018-04-24T09:51:09.974Z,5.60
2018-04-24T09:53:36.765Z,5.60
2018-04-24T09:56:03.413Z,6.60
2018-04-24T09:58:30.141Z,5.57
2018-04-24T10:00:56.865Z,6.63
2018-04-24T10:03:23.570Z,5.00
2018-04-24T10:05:50.288Z,6.03
2018-04-24T10:08:16.970Z,6.07
2018-04-24T10:10:43.655Z,4.73
2018-04-24T10:13:10.345Z,6.70
2018-04-24T10:15:37.042Z,5.60
2018-04-24T10:18:03.765Z,8.40
2018-04-24T10:20:31.256Z,5.43
2018-04-24T10:22:58.035Z,5.53
2018-04-24T10:25:24.672Z,5.90
2018-04-24T10:27:52.156Z,5.80
2018-04-24T10:30:18.864Z,5.83
2018-04-24T10:32:45.537Z,5.97
2018-04-24T10:35:12.224Z,5.17
2018-04-24T10:37:38.929Z,5.60
2018-04-24T10:40:05.663Z,6.57
2018-04-24T10:42:32.366Z,5.00
2018-04-24T10:44:59.044Z,5.07
2018-04-24T10:47:25.832Z,4.80
2018-04-24T10:49:52.524Z,4.20
2018-04-24T10:52:19.218Z,4.63
2018-04-24T10:54:45.930Z,4.53
2018-04-24T10:57:13.739Z,3.60
2018-04-24T10:59:40.421Z,4.27
2018-04-24T11:02:07.099Z,5.03
2018-04-24T11:04:33.785Z,4.23
2018-04-24T11:07:00.509Z,14.37
2018-04-24T11:09:27.197Z,4.30
2018-04-24T11:11:54.609Z,10.97
2018-04-24T11:14:21.322Z,10.00
2018-04-24T11:16:48.002Z,5.93
2018-04-24T11:19:14.697Z,4.77
2018-04-24T11:21:41.440Z,4.50
2018-04-24T11:24:08.108Z,10.13
2018-04-24T11:26:34.805Z,5.00
2018-04-24T11:29:01.509Z,5.40
2018-04-24T11:31:28.199Z,4.60
2018-04-24T11:33:55.641Z,4.10
2018-04-24T11:36:22.306Z,4.43
2018-04-24T11:38:48.989Z,4.90
2018-04-24T11:41:15.671Z,7.80
2018-04-24T11:43:42.369Z,5.03
2018-04-24T11:46:09.055Z,5.40
2018-04-24T11:48:35.746Z,4.30
2018-04-24T11:51:02.441Z,4.20
2018-04-24T11:53:29.209Z,5.60
2018-04-24T11:55:55.912Z,4.90
2018-04-24T11:58:22.613Z,4.57
2018-04-24T12:00:49.322Z,5.73
2018-04-24T12:03:16.017Z,4.40
2018-04-24T12:05:42.695Z,5.30
2018-04-24T12:08:09.410Z,4.17
2018-04-24T12:10:36.118Z,4.50
2018-04-24T12:13:02.987Z,4.20
2018-04-24T12:15:29.690Z,5.03
2018-04-24T12:17:56.374Z,5.30
2018-04-24T12:20:23.081Z,5.30
2018-04-24T12:22:49.792Z,4.07
2018-04-24T12:25:16.503Z,4.80
2018-04-24T12:27:43.205Z,4.80
2018-04-24T12:30:09.898Z,4.87
2018-04-24T12:32:36.616Z,5.27
2018-04-24T12:35:03.287Z,5.30
2018-04-24T12:37:29.988Z,5.23
2018-04-24T12:39:56.694Z,5.90
2018-04-24T12:42:23.372Z,4.13
2018-04-24T12:44:50.703Z,4.37
2018-04-24T12:47:17.376Z,4.17
2018-04-24T12:49:44.058Z,4.40
2018-04-24T12:52:10.753Z,5.47
2018-04-24T12:54:37.436Z,7.30
2018-04-24T12:57:04.152Z,3.90
2018-04-24T12:59:31.773Z,4.70
2018-04-24T13:01:58.435Z,8.00
2018-04-24T13:04:25.121Z,4.03
2018-04-24T13:06:51.833Z,4.43
2018-04-24T13:09:18.504Z,3.70
2018-04-24T13:11:45.193Z,4.27
2018-04-24T13:14:12.155Z,6.03
2018-04-24T13:16:38.836Z,6.57
2018-04-24T13:19:05.540Z,3.87
2018-04-24T13:21:32.784Z,4.20
2018-04-24T13:23:59.503Z,5.43
2018-04-24T13:26:26.186Z,5.70
2018-04-24T13:28:52.869Z,4.47
2018-04-24T13:31:19.621Z,6.77
2018-04-24T13:33:46.326Z,5.97
2018-04-24T13:36:13.021Z,3.60
2018-04-24T13:38:39.733Z,5.23
2018-04-24T13:41:06.490Z,4.47
2018-04-24T13:43:33.114Z,3.93
2018-04-24T13:45:59.799Z,3.53
2018-04-24T13:48:27.146Z,5.53
2018-04-24T13:50:53.828Z,4.13
2018-04-24T13:53:20.511Z,5.10
2018-04-24T13:55:47.234Z,5.03
2018-04-24T13:58:14.569Z,3.60
2018-04-24T14:00:41.275Z,3.97
2018-04-24T14:03:08.715Z,5.87
2018-04-24T14:05:35.431Z,3.97
2018-04-24T14:08:02.106Z,4.30
2018-04-24T14:10:28.834Z,3.40
2018-04-24T14:12:55.514Z,4.87
2018-04-24T14:15:22.228Z,5.03
2018-04-24T14:17:48.908Z,4.07
2018-04-24T14:20:15.652Z,4.30
2018-04-24T14:22:42.526Z,4.33
2018-04-24T14:25:09.194Z,5.40
2018-04-24T14:27:35.883Z,4.07
2018-04-24T14:30:02.575Z,5.63
2018-04-24T14:32:29.281Z,3.73
2018-04-24T14:34:55.968Z,4.77
2018-04-24T14:37:22.661Z,4.37
2018-04-24T14:39:49.406Z,5.03
2018-04-24T14:42:21.904Z,8.10
2018-04-24T14:44:48.595Z,3.73
2018-04-24T14:47:15.340Z,5.53
2018-04-24T14:49:42.041Z,3.90
2018-04-24T14:52:08.741Z,4.93
2018-04-24T14:54:35.447Z,4.57
2018-04-24T14:57:02.118Z,4.50
2018-04-24T14:59:28.818Z,4.17
2018-04-24T15:01:55.509Z,4.50
2018-04-24T15:04:22.196Z,3.97
2018-04-24T15:06:48.921Z,4.40
2018-04-24T15:09:15.620Z,5.13
2018-04-24T15:11:42.309Z,3.90
2018-04-24T15:14:09.027Z,5.20
2018-04-24T15:16:35.721Z,7.27
2018-04-24T15:19:02.423Z,5.10
2018-04-24T15:21:29.135Z,7.93
2018-04-24T15:23:55.843Z,5.47
2018-04-24T15:26:22.651Z,4.23
2018-04-24T15:28:49.341Z,5.30
2018-04-24T15:31:16.010Z,5.03
2018-04-24T15:33:42.703Z,4.50
2018-04-24T15:36:09.412Z,5.70
2018-04-24T15:38:36.081Z,6.30
2018-04-24T15:41:02.777Z,6.20
2018-04-24T15:43:29.449Z,4.40
2018-04-24T15:45:56.135Z,4.53
2018-04-24T15:48:25.136Z,6.87
2018-04-24T15:50:51.836Z,4.77
2018-04-24T15:53:18.553Z,6.40
2018-04-24T15:55:45.348Z,6.00
2018-04-24T15:58:12.079Z,6.13
2018-04-24T16:00:38.753Z,4.53
2018-04-24T16:03:05.464Z,4.43
2018-04-24T16:05:32.188Z,5.10
2018-04-24T16:07:58.889Z,5.63
2018-04-24T16:10:25.550Z,3.50
2018-04-24T16:12:52.214Z,4.20
2018-04-24T16:15:19.218Z,3.97
2018-04-24T16:17:45.911Z,3.87
2018-04-24T16:20:12.576Z,8.73
2018-04-24T16:22:40.214Z,4.17
2018-04-24T16:25:07.118Z,4.37
2018-04-24T16:27:33.806Z,4.07
2018-04-24T16:30:00.501Z,4.93
2018-04-24T16:32:27.175Z,4.20
2018-04-24T16:34:53.852Z,4.80
2018-04-24T16:37:20.609Z,4.30
2018-04-24T16:39:47.516Z,4.63
2018-04-24T16:42:14.241Z,4.57
2018-04-24T16:44:40.943Z,4.87
2018-04-24T16:47:07.640Z,4.40
2018-04-24T16:49:35.210Z,4.70
2018-04-24T16:52:02.293Z,7.60
2018-04-24T16:54:28.995Z,3.77
2018-04-24T16:56:55.714Z,4.90
2018-04-24T16:59:22.400Z,4.40
2018-04-24T17:01:49.089Z,5.30
2018-04-24T17:04:15.758Z,4.13
2018-04-24T17:06:42.445Z,5.50
2018-04-24T17:09:09.114Z,4.90
2018-04-24T17:11:35.806Z,7.13
2018-04-24T17:14:02.540Z,5.10
2018-04-24T17:16:29.685Z,3.97
2018-04-24T17:18:56.364Z,4.53
2018-04-24T17:21:23.908Z,3.63
2018-04-24T17:23:50.618Z,5.03
2018-04-24T17:26:17.323Z,7.33
2018-04-24T17:28:43.995Z,6.83
2018-04-24T17:31:10.984Z,4.93
2018-04-24T17:33:38.472Z,5.30
2018-04-24T17:36:05.188Z,7.83
2018-04-24T17:38:31.971Z,4.80
2018-04-24T17:40:58.751Z,6.40
2018-04-24T17:43:25.495Z,4.13
2018-04-24T17:45:52.212Z,3.63
2018-04-24T17:48:18.930Z,5.20
2018-04-24T17:50:45.625Z,5.30
2018-04-24T17:53:12.319Z,4.47
2018-04-24T17:55:39.055Z,4.30
2018-04-24T17:58:05.716Z,6.00
2018-04-24T18:00:32.484Z,5.53
2018-04-24T18:02:59.181Z,5.10
2018-04-24T18:05:25.918Z,6.97
2018-04-24T18:07:52.784Z,5.00
2018-04-24T18:10:19.459Z,5.53
2018-04-24T18:12:46.158Z,4.90
2018-04-24T18:15:12.856Z,4.37
2018-04-24T18:17:39.543Z,5.10
2018-04-24T18:20:06.260Z,4.70
2018-04-24T18:22:32.994Z,6.13
2018-04-24T18:24:59.697Z,5.33
2018-04-24T18:27:26.388Z,8.13
2018-04-24T18:29:53.090Z,5.17
2018-04-24T18:32:19.862Z,5.43
2018-04-24T18:34:46.624Z,5.17
2018-04-24T18:37:13.278Z,5.10
2018-04-24T18:39:40.576Z,5.63
2018-04-24T18:42:07.275Z,5.97
2018-04-24T18:44:34.011Z,5.53
2018-04-24T18:47:00.701Z,5.30
2018-04-24T18:49:27.422Z,5.40
2018-04-24T18:51:54.144Z,6.37
2018-04-24T18:54:20.842Z,5.73
2018-04-24T18:56:47.546Z,5.20
2018-04-24T18:59:14.260Z,5.10
2018-04-24T19:01:41.505Z,8.57
2018-04-24T19:04:08.192Z,6.63
2018-04-24T19:06:34.901Z,7.60
2018-04-24T19:09:01.622Z,6.30
2018-04-24T19:11:28.323Z,6.00
2018-04-24T19:13:55.013Z,6.90
2018-04-24T19:16:21.726Z,5.10
2018-04-24T19:19:04.122Z,6.63
2018-04-24T19:21:30.800Z,4.80
2018-04-24T19:23:57.572Z,6.23
2018-04-24T19:26:24.271Z,5.63
2018-04-24T19:28:50.952Z,6.43
2018-04-24T19:31:23.474Z,7.43
2018-04-24T19:33:50.141Z,6.50
2018-04-24T19:36:16.825Z,5.80
2018-04-24T19:38:49.247Z,8.00
2018-04-24T19:41:21.711Z,6.40
2018-04-24T19:43:48.432Z,6.10
2018-04-24T19:46:15.182Z,5.20
2018-04-24T19:48:47.461Z,7.33
2018-04-24T19:51:14.168Z,5.50
2018-04-24T19:53:40.903Z,6.50
2018-04-24T19:56:07.606Z,5.37
2018-04-24T19:58:34.317Z,5.60
2018-04-24T20:01:01.046Z,5.90
2018-04-24T20:03:27.737Z,6.80
2018-04-24T20:05:54.435Z,5.77
2018-04-24T20:08:21.149Z,6.70
2018-04-24T20:10:47.858Z,6.93
2018-04-24T20:13:14.540Z,6.03
2018-04-24T20:15:41.304Z,7.70
2018-04-24T20:18:07.992Z,6.83
2018-04-24T20:20:34.687Z,9.20
2018-04-24T20:23:01.367Z,6.90
2018-04-24T20:25:28.142Z,8.83
2018-04-24T20:27:54.878Z,7.90
2018-04-24T20:30:21.556Z,8.57
2018-04-24T20:32:48.254Z,8.30
2018-04-24T20:35:15.016Z,7.10
2018-04-24T20:37:41.740Z,7.60
2018-04-24T20:40:08.495Z,8.13
2018-04-24T20:42:35.200Z,7.73
2018-04-24T20:45:01.924Z,11.27
2018-04-24T20:47:28.693Z,6.73
2018-04-24T20:49:55.419Z,6.50
2018-04-24T20:52:22.197Z,8.50
2018-04-24T20:54:48.883Z,6.13
2018-04-24T20:57:15.609Z,7.07
2018-04-24T20:59:42.301Z,7.33
2018-04-24T21:02:08.973Z,7.70
2018-04-24T21:04:35.858Z,6.27
2018-04-24T21:07:02.523Z,7.90
2018-04-24T21:09:30.153Z,6.40
2018-04-24T21:11:56.841Z,7.00
2018-04-24T21:14:23.507Z,6.87
2018-04-24T21:16:50.227Z,7.03
2018-04-24T21:19:16.958Z,6.27
2018-04-24T21:21:43.676Z,7.33
2018-04-24T21:24:10.385Z,6.47
2018-04-24T21:26:37.087Z,6.80
2018-04-24T21:29:03.779Z,6.60
2018-04-24T21:31:30.461Z,9.53
2018-04-24T21:33:57.191Z,7.27
2018-04-24T21:36:23.880Z,6.17
2018-04-24T21:38:50.587Z,6.70
2018-04-24T21:41:17.294Z,9.77
2018-04-24T21:43:43.997Z,5.63
2018-04-24T21:46:10.705Z,6.50
2018-04-24T21:48:37.407Z,5.87
2018-04-24T21:51:04.075Z,8.43
2018-04-24T21:53:30.830Z,8.50
2018-04-24T21:55:57.564Z,6.10
2018-04-24T21:58:24.309Z,7.30
2018-04-24T22:00:51.011Z,6.70
2018-04-24T22:03:17.691Z,6.60
2018-04-24T22:05:44.381Z,7.33
2018-04-24T22:08:11.110Z,6.10
2018-04-24T22:10:37.803Z,6.97
2018-04-24T22:13:04.488Z,8.13
2018-04-24T22:15:31.193Z,6.37
2018-04-24T22:17:57.871Z,6.53
2018-04-24T22:20:24.541Z,7.10
2018-04-24T22:22:51.288Z,6.33
2018-04-24T22:25:17.981Z,6.37
2018-04-24T22:27:44.688Z,7.00
2018-04-24T22:30:11.371Z,7.60
2018-04-24T22:32:38.060Z,7.27
2018-04-24T22:35:04.738Z,7.00
2018-04-24T22:37:31.436Z,7.90
2018-04-24T22:39:58.124Z,6.87
2018-04-24T22:42:24.829Z,7.70
2018-04-24T22:44:51.533Z,8.03
2018-04-24T22:47:18.224Z,8.23
2018-04-24T22:49:44.967Z,7.50
2018-04-24T22:52:11.675Z,7.27
2018-04-24T22:54:38.369Z,6.87
2018-04-24T22:57:05.043Z,7.13
2018-04-24T22:59:31.725Z,9.50
2018-04-24T23:01:58.384Z,7.70
2018-04-24T23:04:25.063Z,6.80
2018-04-24T23:06:51.758Z,7.10
2018-04-24T23:09:18.431Z,7.03
2018-04-24T23:11:51.149Z,8.50
2018-04-24T23:14:23.512Z,6.70
2018-04-24T23:16:55.983Z,7.13
2018-04-24T23:19:28.364Z,6.90
2018-04-24T23:21:54.819Z,8.37
2018-04-24T23:24:21.530Z,7.10
2018-04-24T23:26:48.191Z,7.03
2018-04-24T23:29:14.884Z,7.37
2018-04-24T23:31:41.548Z,7.07
2018-04-24T23:34:08.235Z,6.47
2018-04-24T23:36:35.002Z,7.00
2018-04-24T23:39:01.724Z,8.37
2018-04-24T23:41:28.403Z,7.47
2018-04-24T23:43:55.101Z,6.43
2018-04-24T23:46:21.761Z,7.97
2018-04-24T23:48:48.460Z,7.60
2018-04-24T23:51:15.142Z,7.40
2018-04-24T23:53:41.841Z,7.23
2018-04-24T23:56:08.526Z,7.03
2018-04-24T23:58:35.218Z,7.73
